METAR Data
IDs: Format: Raw Decoded Include TAF

Data at: 2127 UTC 10 May 2021

KCOS 102123Z 11008KT 2SM R17L/5500VP6000FT -DZ BR OVC005 04/04 A3007 RMK AO2 P0000 T00390039
KCOS 102054Z 13010KT 4SM -DZ BR OVC005 04/03 A3006 RMK AO2 SLP187 P0000 60001 T00390033
KCOS 101954Z 14014KT 4SM -DZ BR OVC005 04/03 A3003 RMK AO2 SLP177 P0000 T00390033
KCOS 101854Z 15015KT 2SM -DZ BR OVC005 04/03 A3005 RMK AO2 SLP180 P0001 T00390033
KCOS 101821Z 15013KT 2SM -DZ BR OVC005 04/03 A3006 RMK AO2 P0000 T00440033
KCOS 101754Z 15014KT 2SM -DZ BR OVC005 04/02 A3006 RMK AO2 TWR VIS 2 1/2 SLP177 P0000 60003 T00390022 10039 20022 $
KCOS 101654Z COR 14013KT 2SM -DZ BR OVC005 03/03 A3008 RMK AO2 TWR VIS 2 1/2 SLPNO P0001 T00280028 $
KCOS 101554Z 14017KT 2 1/2SM -DZ BR OVC005 03/02 RMK AO2 SFC VIS 3 RAE31DZB31 SLPNO P0000 T00280022 $
KCOS 101535Z COR 14020KT 2 1/2SM -DZ BR OVC005 02/02 A3009 RMK AO2 RAE31DZB31 P0000 T00220017 $
KCOS 101526Z COR 14017KT 1SM R17L/P6000FT -RA BR OVC003 02/02 A3009 RMK AO2 SFC VIS 2 CIG 002V007 P0000 T00220017 $
KCOS 101454Z COR 14018KT 1/2SM R17L/4500VP6000FT -RA BR OVC003 03/02 A3010 RMK AO2 SFC VIS 3/4 SLPNO DZE13RAB13 P0002 60002 T00280022 $
KCOS 101354Z 17014KT 1/2SM R17L/2400VP6000FT -DZ BR OVC002 03/02 A3010 RMK AO2 SFC VIS 1 SLP190 P0000 T00330022
KCOS 101349Z 17015KT 1SM R17L/2000VP6000FT -DZ OVC002 03/02 A3010 RMK AO2 VIS S-W 1 P0000
KCOS 101254Z 16011KT 1/4SM R17L/1400V2200FT -DZ FG VV002 03/02 A3009 RMK AO2 DZB14 SLP188 P0000 T00280017 $
KCOS 101234Z 15013KT 1/4SM R17L/1400V2800FT -DZ FG VV002 03/02 A3008 RMK AO2 TWR VIS 1/2 DZB14 PCPN VRY LGT P0000 T00280017 $
KCOS 101217Z 15014KT 1/2SM R17L/3000VP6000FT -DZ FG VV002 03/01 A3008 RMK AO2 DZB14 VIS SW-W 3/4 P0000 T00280011 $
KCOS 101206Z 15012KT 1/4SM R17L/3000VP6000FT FG VV002 03/01 A3008 RMK AO2 VIS SW-NW 3/4 T00280011 $
KCOS 101154Z 15012KT 1SM R17L/3000VP6000FT BR OVC002 02/01 A3008 RMK AO2 DZE30 SLP185 VIS E-SE 1/2 P0000 60016 70016 T00220011 10050 20017 58010 $
KCOS 101131Z 14009KT 1 3/4SM R17L/3500VP6000FT BR OVC002 02/01 A3009 RMK AO2 DZE30 VIS E-SE 1 P0000 T00220011 $
KCOS 101114Z 16009KT 2SM R17L/2600VP6000FT -DZ BR BKN002 OVC004 02/01 A3010 RMK AO2 VIS SW-W 5 PCPN VRY LGT P0000 T00220011 $
KCOS 101054Z 15009KT 6SM -DZ BR BKN002 OVC004 02/01 A3010 RMK AO2 RAE43DZB43SNE13 SLP190 PCPN VRY LGT P0001 T00220006 $
KCOS 100954Z 17006KT 6SM -RASN BR BKN004 OVC012 02/01 A3012 RMK AO2 SLP199 P0002 T00220006 $
KCOS 100901Z 16010KT 4SM -RASN BR BKN004 OVC007 02/01 A3012 RMK AO2 P0000 T00220006 $
KCOS 100854Z 15009KT 4SM -RASN BR BKN005 OVC013 02/01 A3012 RMK AO2 SLP198 P0005 60013 T00220006 58005 $
KCOS 100754Z 15012KT 4SM -RASN BR BKN006 OVC012 02/01 A3014 RMK AO2 SNB25 SLP203 P0005 T00220006 $
KCOS 100713Z 15011KT 5SM -RA BR BKN009 OVC020 03/01 A3014 RMK AO2 P0001 T00330006 $
KCOS 100654Z 14011KT 6SM -RA BR BKN012 OVC023 03/01 A3014 RMK AO2 SLP201 P0003 T00330006 400890033 $
KCOS 100640Z 14011KT 6SM -RA BR BKN014 OVC023 03/01 A3013 RMK AO2 P0003 T00330006 $
KCOS 100554Z 16013G19KT 9SM -RA FEW015 OVC026 05/M01 A3014 RMK AO2 RAB40 SLP198 P0000 60000 T00501006 10072 20050 53008 $
KCOS 100454Z 15013KT 10SM OVC027 06/M01 A3013 RMK AO2 SLP194 T00561011 $
KCOS 100354Z 14011KT 10SM OVC029 06/M02 A3012 RMK AO2 SLP191 T00561017 $
KCOS 100254Z 13009KT 10SM OVC028 06/M02 A3011 RMK AO2 SLP188 T00611017 53008 $
KCOS 100223Z 13008KT 10SM OVC027 06/M02 A3011 RMK AO2 T00561017 $
KCOS 100154Z 15010KT 10SM OVC030 06/M02 A3010 RMK AO2 SLP187 T00611017 $
KCOS 100054Z 12012KT 10SM OVC030 07/M02 A3008 RMK AO2 SLP179 T00671017 $
KCOS 092354Z 14013KT 10SM FEW028 OVC036 07/M01 A3008 RMK AO2 SLP177 T00721011 10089 20061 53003 $
KCOS 092254Z 15014KT 10SM OVC032 07/M01 A3007 RMK AO2 SLP172 T00721011 $
KCOS 092154Z 16012KT 10SM OVC026 07/00 A3006 RMK AO2 SLP162 T00720000 $
KCOS 092054Z 16010KT 10SM OVC026 08/M01 A3007 RMK AO2 SLP167 T00781006 $
KCOS 091954Z 16013KT 10SM OVC026 07/00 A3008 RMK AO2 SLP168 T00720000 $
KCOS 091944Z 17011KT 10SM OVC024 07/00 A3008 RMK AO2 T00720000 $
KCOS 091854Z 15010KT 10SM BKN022 OVC028 07/00 A3009 RMK AO2 SLP176 T00720000
KCOS 091754Z 16008KT 10SM BKN027 OVC040 07/M01 A3011 RMK AO2 SLP182 60000 T00671006 10067 20039 58003
KCOS 091749Z 15010KT 10SM BKN027 OVC040 06/M01 A3011 RMK AO2
KCOS 091654Z 10007KT 10SM BKN035 OVC060 06/M02 A3013 RMK AO2 SLP188 T00611022
KCOS 091554Z VRB04KT 10SM BKN030 OVC060 06/M04 A3013 RMK AO2 SLP183 T00611039
KCOS 091454Z 01008KT 10SM BKN030 OVC050 06/M03 A3012 RMK AO2 RAE10 SLP179 P0000 60000 T00611033 51017
KCOS 091354Z 36009KT 10SM -RA FEW012 BKN016 OVC021 04/00 A3012 RMK AO2 SLP180 PCPN VRY LGT P0000 T00440000
KCOS 091254Z 03012KT 10SM -RA BKN016 OVC024 04/01 A3010 RMK AO2 RAB33 SLP171 P0000 T00440006
KCOS 091154Z 03014KT 10SM SCT015 BKN025 OVC050 05/01 A3006 RMK AO2 RAE17 SLP148 P0000 60000 70001 T00500006 10078 20050 53011
KCOS 091054Z 04019G23KT 10SM -RA SCT013 BKN025 OVC050 06/01 A3004 RMK AO2 RAB48 SLP132 PCPN VRY LGT P0000 T00560011
KCOS 091001Z 02008KT 10SM FEW010 BKN027 OVC055 08/02 A3004 RMK AO2 T00780022
KCOS 090954Z 35009KT 10SM FEW010 SCT027 BKN055 08/02 A3004 RMK AO2 SLP117 T00780022